createdAt,value
2018-08-02T05:35:55.072Z,4.12
2018-08-02T05:38:27.265Z,4.92
2018-08-02T05:40:59.697Z,5.15
2018-08-02T05:43:32.117Z,4.72
2018-08-02T05:46:04.580Z,4.40
2018-08-02T05:48:37.253Z,9.03
2018-08-02T05:51:09.669Z,7.33
2018-08-02T05:53:42.074Z,5.40
2018-08-02T05:56:14.726Z,4.50
2018-08-02T05:58:47.126Z,4.65
2018-08-02T06:01:19.535Z,3.83
2018-08-02T06:03:51.945Z,4.47
2018-08-02T06:06:24.346Z,4.25
2018-08-02T06:08:56.753Z,4.25
2018-08-02T06:11:29.167Z,4.50
2018-08-02T06:14:01.578Z,5.62
2018-08-02T06:16:34.532Z,5.00
2018-08-02T06:19:06.938Z,4.85
2018-08-02T06:21:39.358Z,4.55
2018-08-02T06:24:11.813Z,5.90
2018-08-02T06:26:44.248Z,5.58
2018-08-02T06:29:16.671Z,4.25
2018-08-02T06:31:49.306Z,4.72
2018-08-02T06:34:21.998Z,5.70
2018-08-02T06:36:54.402Z,4.85
2018-08-02T06:39:26.930Z,5.47
2018-08-02T06:41:59.557Z,5.60
2018-08-02T06:44:32.017Z,5.08
2018-08-02T06:47:04.434Z,6.05
2018-08-02T06:49:37.390Z,4.33
2018-08-02T06:52:10.072Z,6.22
2018-08-02T06:54:42.749Z,6.72
2018-08-02T06:57:15.393Z,9.15
2018-08-02T06:59:47.801Z,7.65
2018-08-02T07:02:20.477Z,6.97
2018-08-02T07:04:52.889Z,12.25
2018-08-02T07:07:25.326Z,8.58
2018-08-02T07:09:57.899Z,8.18
2018-08-02T07:12:30.293Z,6.72
2018-08-02T07:15:03.359Z,4.90
2018-08-02T07:17:35.761Z,6.47
2018-08-02T07:20:08.589Z,6.12
2018-08-02T07:22:41.286Z,6.05
2018-08-02T07:25:13.973Z,3.95
2018-08-02T07:27:46.381Z,4.20
2018-08-02T07:30:19.026Z,3.92
2018-08-02T07:32:51.760Z,3.77
2018-08-02T07:35:24.994Z,4.45
2018-08-02T07:37:57.427Z,3.90
2018-08-02T07:40:29.909Z,4.95
2018-08-02T07:43:02.375Z,4.53
2018-08-02T07:45:34.762Z,6.90
2018-08-02T07:48:07.169Z,5.87
2018-08-02T07:50:39.946Z,6.53
2018-08-02T07:53:12.352Z,5.87
2018-08-02T07:55:44.997Z,6.03
2018-08-02T07:58:17.677Z,6.42
2018-08-02T08:00:50.105Z,5.60
2018-08-02T08:03:22.548Z,5.15
2018-08-02T08:05:55.197Z,5.10
2018-08-02T08:08:27.601Z,4.80
2018-08-02T08:11:00.254Z,5.60
2018-08-02T08:13:32.657Z,4.85
2018-08-02T08:16:05.169Z,4.85
2018-08-02T08:18:37.480Z,4.47
2018-08-02T08:21:09.897Z,5.87
2018-08-02T08:23:42.303Z,5.10
2018-08-02T08:26:14.787Z,4.35
2018-08-02T08:28:47.177Z,4.75
2018-08-02T08:31:19.609Z,4.90
2018-08-02T08:33:51.998Z,4.20
2018-08-02T08:36:24.455Z,5.10
2018-08-02T08:38:57.128Z,4.70
2018-08-02T08:41:30.142Z,4.80
2018-08-02T08:44:02.537Z,3.75
2018-08-02T08:46:34.933Z,4.50
2018-08-02T08:49:07.689Z,4.70
2018-08-02T08:51:40.104Z,4.80
2018-08-02T08:54:12.518Z,5.00
2018-08-02T08:56:45.256Z,4.33
2018-08-02T08:59:28.953Z,4.33
2018-08-02T09:02:01.364Z,4.28
2018-08-02T09:04:34.002Z,4.28
2018-08-02T09:07:06.656Z,4.55
2018-08-02T09:09:39.385Z,4.20
2018-08-02T09:12:12.653Z,4.47
2018-08-02T09:14:45.103Z,3.52
2018-08-02T09:17:17.501Z,4.33
2018-08-02T09:19:49.891Z,3.27
2018-08-02T09:22:22.321Z,4.12
2018-08-02T09:24:54.941Z,3.90
2018-08-02T09:27:27.390Z,3.92
2018-08-02T09:29:59.794Z,4.03
2018-08-02T09:32:32.555Z,4.50
2018-08-02T09:35:05.080Z,3.70
2018-08-02T09:37:37.745Z,4.60
2018-08-02T09:40:10.411Z,3.90
2018-08-02T09:42:42.836Z,3.50
2018-08-02T09:45:15.916Z,3.77
2018-08-02T09:47:48.610Z,3.90
2018-08-02T09:50:21.027Z,3.70
2018-08-02T09:52:53.455Z,3.40
2018-08-02T09:55:25.896Z,3.33
2018-08-02T09:57:58.318Z,3.55
2018-08-02T10:00:30.727Z,3.33
2018-08-02T10:03:03.433Z,2.65
2018-08-02T10:05:35.865Z,3.30
2018-08-02T10:08:08.294Z,3.40
2018-08-02T10:10:40.705Z,3.10
2018-08-02T10:13:13.127Z,3.37
2018-08-02T10:15:45.815Z,2.95
2018-08-02T10:18:18.579Z,3.20
2018-08-02T10:20:50.985Z,3.20
2018-08-02T10:23:23.417Z,3.10
2018-08-02T10:25:55.826Z,2.92
2018-08-02T10:28:28.259Z,3.00
2018-08-02T10:31:00.680Z,2.62
2018-08-02T10:33:33.109Z,2.60
2018-08-02T10:36:05.581Z,2.40
2018-08-02T10:38:38.006Z,2.80
2018-08-02T10:41:10.420Z,2.85
2018-08-02T10:43:43.111Z,2.10
2018-08-02T10:46:15.509Z,2.08
2018-08-02T10:48:47.925Z,2.58
2018-08-02T10:51:20.353Z,2.27
2018-08-02T10:53:52.765Z,3.27
2018-08-02T10:56:25.205Z,2.17
2018-08-02T10:58:57.946Z,2.10
2018-08-02T11:01:30.756Z,1.95
2018-08-02T11:04:03.097Z,2.37
2018-08-02T11:06:35.806Z,2.30
2018-08-02T11:09:08.566Z,2.37
2018-08-02T11:11:40.981Z,2.12
2018-08-02T11:14:13.377Z,2.50
2018-08-02T11:16:45.798Z,3.02
2018-08-02T11:19:18.232Z,2.60
2018-08-02T11:21:50.642Z,2.65
2018-08-02T11:24:23.094Z,2.67
2018-08-02T11:26:55.771Z,2.55
2018-08-02T11:29:28.457Z,2.50
2018-08-02T11:32:00.928Z,2.67
2018-08-02T11:34:33.386Z,2.87
2018-08-02T11:37:05.838Z,2.90
2018-08-02T11:39:38.249Z,2.67
2018-08-02T11:42:10.687Z,2.40
2018-08-02T11:44:43.076Z,2.70
2018-08-02T11:47:15.797Z,2.58
2018-08-02T11:49:48.211Z,2.67
2018-08-02T11:52:20.943Z,2.87
2018-08-02T11:54:53.377Z,2.77
2018-08-02T11:57:26.278Z,2.85
2018-08-02T11:59:58.990Z,3.72
2018-08-02T12:02:31.434Z,2.62
2018-08-02T12:05:04.015Z,3.15
2018-08-02T12:07:36.802Z,3.35
2018-08-02T12:10:09.223Z,2.70
2018-08-02T12:12:41.698Z,2.70
2018-08-02T12:15:14.114Z,2.90
2018-08-02T12:17:46.560Z,2.92
2018-08-02T12:20:19.298Z,2.58
2018-08-02T12:22:51.955Z,2.62
2018-08-02T12:25:24.408Z,2.90
2018-08-02T12:27:57.157Z,3.00
2018-08-02T12:30:29.939Z,2.72
2018-08-02T12:33:02.377Z,2.77
2018-08-02T12:35:34.849Z,2.67
2018-08-02T12:38:07.262Z,3.00
2018-08-02T12:40:39.711Z,4.72
2018-08-02T12:43:12.155Z,3.37
2018-08-02T12:45:44.925Z,3.00
2018-08-02T12:48:17.465Z,3.70
2018-08-02T12:50:49.841Z,3.40
2018-08-02T12:53:22.794Z,3.25
2018-08-02T12:55:55.830Z,3.22
2018-08-02T12:58:28.947Z,2.90
2018-08-02T13:01:01.606Z,3.40
2018-08-02T13:03:34.428Z,3.50
2018-08-02T13:06:06.849Z,3.65
2018-08-02T13:08:39.577Z,3.30
2018-08-02T13:11:12.151Z,3.87
2018-08-02T13:13:44.478Z,3.17
2018-08-02T13:16:16.914Z,3.50
2018-08-02T13:18:49.367Z,3.40
2018-08-02T13:21:21.940Z,3.62
2018-08-02T13:23:54.381Z,3.42
2018-08-02T13:26:26.818Z,3.52
2018-08-02T13:28:59.297Z,3.77
2018-08-02T13:31:31.715Z,3.60
2018-08-02T13:34:04.142Z,4.05
2018-08-02T13:36:36.715Z,3.27
2018-08-02T13:39:09.402Z,4.15
2018-08-02T13:41:41.835Z,4.00
2018-08-02T13:44:14.444Z,3.77
2018-08-02T13:46:47.178Z,4.30
2018-08-02T13:49:19.615Z,4.05
2018-08-02T13:51:52.045Z,3.35
2018-08-02T13:54:24.486Z,3.67
2018-08-02T13:56:56.918Z,4.30
2018-08-02T13:59:29.705Z,3.87
2018-08-02T14:02:02.434Z,3.60
2018-08-02T14:04:35.690Z,3.72
2018-08-02T14:07:08.087Z,3.70
2018-08-02T14:09:40.525Z,3.60
2018-08-02T14:12:13.246Z,3.90
2018-08-02T14:14:45.937Z,3.75
2018-08-02T14:17:18.471Z,3.47
2018-08-02T14:19:51.105Z,3.83
2018-08-02T14:22:23.918Z,3.92
2018-08-02T14:24:56.299Z,3.67
2018-08-02T14:27:29.046Z,3.45
2018-08-02T14:30:01.547Z,2.80
2018-08-02T14:32:34.193Z,3.50
2018-08-02T14:35:06.871Z,3.42
2018-08-02T14:37:39.639Z,3.10
2018-08-02T14:40:12.134Z,3.17
2018-08-02T14:42:45.403Z,3.05
2018-08-02T14:45:17.827Z,3.47
2018-08-02T14:47:50.262Z,3.35
2018-08-02T14:50:22.941Z,2.98
2018-08-02T14:52:55.906Z,3.12
2018-08-02T14:55:28.826Z,3.45
2018-08-02T14:58:01.903Z,3.52
2018-08-02T15:00:34.396Z,3.67
2018-08-02T15:03:06.830Z,3.27
2018-08-02T15:05:40.133Z,3.25
2018-08-02T15:08:12.608Z,3.42
2018-08-02T15:10:45.039Z,3.02
2018-08-02T15:13:17.887Z,3.77
2018-08-02T15:15:50.347Z,3.55
2018-08-02T15:18:22.806Z,3.30
2018-08-02T15:20:55.261Z,3.25
2018-08-02T15:23:27.706Z,3.10
2018-08-02T15:26:00.188Z,3.50
2018-08-02T15:28:32.626Z,3.30
2018-08-02T15:31:05.259Z,3.55
2018-08-02T15:33:37.696Z,3.62
2018-08-02T15:36:10.147Z,3.58
2018-08-02T15:38:42.896Z,3.27
2018-08-02T15:41:16.117Z,3.55
2018-08-02T15:43:48.588Z,3.20
2018-08-02T15:46:21.059Z,3.52
2018-08-02T15:48:53.741Z,3.15
2018-08-02T15:51:26.170Z,3.47
2018-08-02T15:53:58.595Z,3.75
2018-08-02T15:56:31.022Z,3.52
2018-08-02T15:59:03.446Z,3.20
2018-08-02T16:01:35.932Z,3.33
2018-08-02T16:04:08.379Z,3.42
2018-08-02T16:06:40.814Z,3.67
2018-08-02T16:09:13.734Z,3.70
2018-08-02T16:11:46.214Z,3.17
2018-08-02T16:14:18.773Z,3.70
2018-08-02T16:16:51.391Z,3.27
2018-08-02T16:19:23.881Z,3.87
2018-08-02T16:21:56.297Z,3.47
2018-08-02T16:24:28.959Z,3.08
2018-08-02T16:27:01.443Z,3.10
2018-08-02T16:29:33.914Z,3.55
2018-08-02T16:32:06.394Z,3.42
2018-08-02T16:34:41.143Z,3.22
2018-08-02T16:37:13.598Z,3.17
2018-08-02T16:39:46.129Z,3.02
2018-08-02T16:42:18.806Z,3.55
2018-08-02T16:44:51.235Z,3.30
2018-08-02T16:47:23.678Z,3.60
2018-08-02T16:49:56.102Z,3.15
2018-08-02T16:52:28.771Z,3.42
2018-08-02T16:55:01.622Z,3.27
2018-08-02T16:57:34.149Z,3.10
2018-08-02T17:00:06.579Z,3.42
2018-08-02T17:02:39.127Z,3.58
2018-08-02T17:05:11.528Z,3.40
2018-08-02T17:07:44.053Z,3.55
2018-08-02T17:10:16.487Z,3.72
2018-08-02T17:12:49.782Z,2.98
2018-08-02T17:15:22.206Z,3.22
2018-08-02T17:17:54.938Z,3.30
2018-08-02T17:20:27.637Z,3.22
2018-08-02T17:23:00.978Z,3.67
2018-08-02T17:25:33.408Z,3.05
2018-08-02T17:28:06.246Z,3.60
2018-08-02T17:30:38.690Z,3.05
2018-08-02T17:33:11.173Z,3.30
2018-08-02T17:35:43.620Z,3.22
2018-08-02T17:38:16.039Z,3.55
2018-08-02T17:40:48.487Z,3.50
2018-08-02T17:43:21.293Z,3.27
2018-08-02T17:45:53.728Z,3.33
2018-08-02T17:48:26.444Z,3.52
2018-08-02T17:50:58.914Z,3.67
2018-08-02T17:53:31.375Z,3.37
2018-08-02T17:56:03.803Z,3.25
2018-08-02T17:58:36.546Z,3.30
2018-08-02T18:01:09.006Z,3.37
2018-08-02T18:03:41.427Z,3.65
2018-08-02T18:06:14.292Z,3.75
2018-08-02T18:08:46.705Z,3.50
2018-08-02T18:11:19.685Z,3.30
2018-08-02T18:13:52.114Z,3.65
2018-08-02T18:16:24.542Z,3.55
2018-08-02T18:18:56.962Z,3.45
2018-08-02T18:21:29.763Z,3.50
2018-08-02T18:24:02.435Z,3.80
2018-08-02T18:26:35.324Z,3.37
2018-08-02T18:29:07.553Z,3.60
2018-08-02T18:31:40.272Z,3.52
2018-08-02T18:34:13.033Z,3.52
2018-08-02T18:36:46.035Z,3.42
2018-08-02T18:39:18.820Z,3.67
2018-08-02T18:41:51.328Z,3.52
2018-08-02T18:44:23.986Z,4.03
2018-08-02T18:46:56.478Z,3.25
2018-08-02T18:49:28.982Z,3.30
2018-08-02T18:52:01.557Z,3.22
2018-08-02T18:54:34.020Z,3.35
2018-08-02T18:57:07.035Z,3.50
2018-08-02T18:59:39.734Z,3.75
2018-08-02T19:02:12.496Z,3.22
2018-08-02T19:04:44.959Z,3.12
2018-08-02T19:07:17.412Z,3.80
2018-08-02T19:09:49.844Z,3.27
2018-08-02T19:12:22.343Z,3.60
2018-08-02T19:14:55.378Z,3.77
2018-08-02T19:17:27.858Z,3.52
2018-08-02T19:20:00.283Z,3.72
2018-08-02T19:22:32.768Z,3.60
2018-08-02T19:25:05.278Z,3.40
2018-08-02T19:27:37.719Z,3.52
2018-08-02T19:30:10.146Z,3.70
2018-08-02T19:32:42.589Z,3.60
2018-08-02T19:35:15.018Z,3.65
2018-08-02T19:37:47.435Z,3.92
2018-08-02T19:40:20.736Z,3.25
2018-08-02T19:42:53.151Z,3.77
2018-08-02T19:45:25.560Z,3.72
2018-08-02T19:47:57.978Z,4.00
2018-08-02T19:50:30.378Z,3.87
2018-08-02T19:53:02.787Z,3.33
2018-08-02T19:55:35.682Z,3.22
2018-08-02T19:58:08.101Z,3.52
2018-08-02T20:00:40.827Z,3.25
2018-08-02T20:03:13.259Z,3.65
2018-08-02T20:05:45.667Z,3.58
2018-08-02T20:08:18.116Z,3.58
2018-08-02T20:10:50.529Z,3.67
2018-08-02T20:13:22.955Z,3.52
